Time;durP1;ratioP1;P1;durP2;ratioP2;P2;SDS_P1;SDS_P2;PMS_P1;PMS_P2;Temp;Humidity;BMP_temperature;BMP_pressure;BME280_temperature;BME280_humidity;BME280_pressure;Samples;Min_cycle;Max_cycle;Signal;HPM_P1;HPM_P2
2022/06/06 00:01:46;;;;;;;77.10;43.47;;;11.50;99.90;;;;;;5040504;28;20057;-73
2022/06/06 00:04:15;;;;;;;82.07;45.15;;;11.50;99.90;;;;;;5023331;28;20456;-74
2022/06/06 00:06:44;;;;;;;78.60;45.30;;;11.40;99.90;;;;;;5039630;28;20380;-73
2022/06/06 00:09:14;;;;;;;69.10;42.53;;;11.40;99.90;;;;;;5023030;28;20379;-73
2022/06/06 00:11:42;;;;;;;76.63;42.75;;;11.40;99.90;;;;;;5023000;28;20045;-74
2022/06/06 00:14:11;;;;;;;77.22;44.22;;;11.40;99.90;;;;;;5037249;28;20046;-73
2022/06/06 00:16:39;;;;;;;64.13;39.58;;;11.40;99.90;;;;;;5019947;28;20050;-74
2022/06/06 00:19:12;;;;;;;68.32;41.30;;;11.40;99.90;;;;;;5036388;28;20096;-73
2022/06/06 00:21:41;;;;;;;64.85;37.25;;;11.40;99.90;;;;;;5037174;28;20045;-73
2022/06/06 00:24:09;;;;;;;64.43;41.85;;;11.30;99.90;;;;;;5037132;28;20052;-73
2022/06/06 00:26:37;;;;;;;56.10;34.28;;;11.40;99.90;;;;;;5036415;28;20068;-73
2022/06/06 00:29:06;;;;;;;56.17;35.50;;;11.40;99.90;;;;;;5037207;28;20053;-74
2022/06/06 00:37:11;;;;;;;60.20;34.87;;;11.40;99.90;;;;;;5037104;28;20052;-73
2022/06/06 00:39:41;;;;;;;56.17;35.35;;;11.40;99.90;;;;;;5035764;28;20041;-74
2022/06/06 00:42:33;;;;;;;55.80;34.40;;;11.40;99.90;;;;;;5019878;28;20052;-74
2022/06/06 00:45:31;;;;;;;52.83;34.45;;;11.40;99.90;;;;;;5036722;28;20499;-73
2022/06/06 00:48:17;;;;;;;60.60;36.10;;;11.40;99.90;;;;;;4994311;28;20049;-74
2022/06/06 00:50:59;;;;;;;51.22;31.65;;;11.40;99.90;;;;;;5019602;28;20046;-74
2022/06/06 00:53:51;;;;;;;58.58;36.90;;;11.40;99.90;;;;;;5035606;28;20060;-73
2022/06/06 00:56:30;;;;;;;63.95;37.30;;;11.30;99.90;;;;;;5036960;28;20053;-74
2022/06/06 00:59:03;;;;;;;71.07;39.45;;;11.30;99.90;;;;;;5027014;28;20053;-74
2022/06/06 01:01:34;;;;;;;62.20;36.90;;;11.30;99.90;;;;;;5055547;28;20044;-73
2022/06/06 01:04:04;;;;;;;62.85;37.28;;;11.30;99.90;;;;;;5056472;28;20500;-74
2022/06/06 01:06:34;;;;;;;62.63;36.67;;;11.20;99.90;;;;;;5055289;28;20045;-73
2022/06/06 01:09:03;;;;;;;63.60;37.47;;;11.20;99.90;;;;;;5055710;28;20053;-74
2022/06/06 01:11:36;;;;;;;62.67;35.60;;;11.20;99.90;;;;;;5055337;28;20053;-74
2022/06/06 01:14:06;;;;;;;58.38;37.38;;;11.20;99.90;;;;;;5055092;28;20045;-74
2022/06/06 01:16:39;;;;;;;68.13;37.80;;;11.20;99.90;;;;;;5056744;28;20387;-74
2022/06/06 01:19:22;;;;;;;53.15;35.22;;;11.20;99.90;;;;;;5055346;28;20040;-74
2022/06/06 01:22:23;;;;;;;67.70;36.88;;;11.20;99.90;;;;;;5056294;28;20048;-73
2022/06/06 01:25:06;;;;;;;71.72;39.17;;;11.20;99.90;;;;;;5055648;28;20045;-73
2022/06/06 01:27:46;;;;;;;65.38;37.92;;;11.30;99.90;;;;;;5054420;28;20048;-74
2022/06/06 01:30:21;;;;;;;69.45;35.67;;;11.20;99.90;;;;;;5055327;28;20390;-73
2022/06/06 01:32:55;;;;;;;69.82;38.40;;;11.20;99.90;;;;;;5054885;28;20048;-73
2022/06/06 01:35:37;;;;;;;68.68;37.33;;;11.30;99.90;;;;;;5055962;28;20060;-74
2022/06/06 01:38:05;;;;;;;69.63;38.47;;;11.30;99.90;;;;;;5055967;28;20045;-73
2022/06/06 01:40:42;;;;;;;;;;;11.30;99.90;;;;;;5055248;28;20045;-73
2022/06/06 01:43:14;;;;;;;75.63;41.67;;;11.00;99.90;;;;;;5055666;28;20351;-73
2022/06/06 01:45:58;;;;;;;71.20;40.25;;;11.30;99.90;;;;;;5054641;28;20489;-74
2022/06/06 01:48:37;;;;;;;77.07;43.55;;;11.40;99.90;;;;;;5056160;28;20049;-73
2022/06/06 01:51:10;;;;;;;56.45;34.05;;;11.40;99.90;;;;;;5055779;28;20049;-72
2022/06/06 01:53:39;;;;;;;65.13;39.15;;;11.60;99.90;;;;;;5054370;28;20471;-73
2022/06/06 01:56:10;;;;;;;53.75;34.15;;;11.60;99.90;;;;;;5055359;28;20049;-73
2022/06/06 01:58:38;;;;;;;58.15;37.08;;;11.70;99.90;;;;;;5051375;28;20050;-74
2022/06/06 02:01:05;;;;;;;50.03;33.67;;;11.80;99.90;;;;;;5034416;28;20037;-73
2022/06/06 02:03:34;;;;;;;52.08;33.17;;;11.90;99.90;;;;;;5035647;28;20125;-73
2022/06/06 02:06:03;;;;;;;46.67;30.00;;;11.90;99.90;;;;;;5034304;28;20057;-74
2022/06/06 02:08:32;;;;;;;43.80;30.40;;;12.00;99.90;;;;;;5035163;28;20053;-74
2022/06/06 02:10:59;;;;;;;48.92;30.65;;;12.10;99.90;;;;;;5035107;28;20050;-73
2022/06/06 02:13:27;;;;;;;51.58;33.00;;;12.10;99.90;;;;;;5034055;28;20056;-74
2022/06/06 02:15:55;;;;;;;47.80;29.00;;;12.10;99.90;;;;;;5035216;28;20049;-73
2022/06/06 02:18:23;;;;;;;44.75;30.13;;;12.10;99.90;;;;;;5035223;28;20360;-74
2022/06/06 02:20:50;;;;;;;40.85;26.48;;;12.20;99.90;;;;;;5033866;28;20045;-74
2022/06/06 02:23:18;;;;;;;46.30;31.20;;;12.20;99.90;;;;;;5035760;28;20041;-73
2022/06/06 02:25:45;;;;;;;39.28;28.25;;;12.20;99.90;;;;;;5033920;28;20045;-73
2022/06/06 02:28:15;;;;;;;37.38;24.45;;;12.20;99.90;;;;;;5035352;28;20060;-74
2022/06/06 02:30:43;;;;;;;47.63;30.35;;;12.20;99.90;;;;;;5034872;28;20380;-73
2022/06/06 02:33:11;;;;;;;37.30;25.83;;;12.20;99.90;;;;;;5016745;28;20045;-74
2022/06/06 02:35:41;;;;;;;38.53;29.30;;;12.30;99.90;;;;;;5035197;28;20052;-73
2022/06/06 02:38:11;;;;;;;44.03;27.70;;;12.30;99.90;;;;;;5034346;28;20053;-74
2022/06/06 02:40:41;;;;;;;38.53;27.08;;;12.30;99.90;;;;;;5033738;28;20045;-73
2022/06/06 02:43:09;;;;;;;39.10;26.65;;;12.30;99.90;;;;;;5034893;28;20053;-73
2022/06/06 02:45:37;;;;;;;40.80;29.73;;;12.30;99.90;;;;;;5033463;28;20472;-73
2022/06/06 02:48:09;;;;;;;34.78;27.55;;;12.30;99.90;;;;;;5034590;28;20049;-73
2022/06/06 02:50:37;;;;;;;43.58;26.45;;;12.30;99.90;;;;;;5034536;28;20056;-73
2022/06/06 02:53:05;;;;;;;42.90;27.30;;;12.30;99.90;;;;;;5033473;28;20041;-73
2022/06/06 02:55:33;;;;;;;;;;;12.30;99.90;;;;;;5035300;28;20054;-73
2022/06/06 02:58:01;;;;;;;42.15;26.98;;;12.30;99.90;;;;;;5034374;28;19921;-73
2022/06/06 03:00:30;;;;;;;;;;;12.30;99.90;;;;;;5033716;28;20041;-74
2022/06/06 03:02:58;;;;;;;32.15;22.25;;;12.30;99.90;;;;;;5034487;28;20270;-73
2022/06/06 03:05:54;;;;;;;31.67;22.90;;;12.30;99.90;;;;;;5034566;28;20493;-73
2022/06/06 03:08:45;;;;;;;33.53;22.30;;;12.30;99.90;;;;;;5034409;28;20388;-73
2022/06/06 03:11:41;;;;;;;26.17;19.98;;;12.30;99.90;;;;;;5034452;28;20056;-73
2022/06/06 03:14:21;;;;;;;31.42;22.42;;;12.30;99.90;;;;;;5016403;28;20068;-73
2022/06/06 03:23:10;;;;;;;31.35;22.60;;;12.40;99.90;;;;;;5034565;28;20046;-73
2022/06/06 03:25:44;;;;;;;28.73;19.60;;;12.30;99.90;;;;;;5033596;28;20077;-73
2022/06/06 03:28:31;;;;;;;31.52;22.40;;;12.30;99.90;;;;;;5034228;28;20056;-73
2022/06/06 03:31:33;;;;;;;27.35;19.60;;;12.30;99.90;;;;;;5034251;28;20064;-73
2022/06/06 03:34:07;;;;;;;29.08;22.02;;;12.30;99.90;;;;;;5033200;28;20061;-73
2022/06/06 03:36:47;;;;;;;31.55;20.83;;;12.30;99.90;;;;;;5034617;28;20056;-73
2022/06/06 03:39:33;;;;;;;28.52;20.50;;;12.30;99.90;;;;;;5033102;28;20308;-73
2022/06/06 03:42:15;;;;;;;28.85;18.35;;;12.30;99.90;;;;;;5034084;28;20041;-73
2022/06/06 03:44:43;;;;;;;26.00;16.98;;;12.40;99.90;;;;;;5034578;28;20049;-73
2022/06/06 03:47:33;;;;;;;21.38;15.13;;;12.40;99.90;;;;;;5015793;28;20042;-73
2022/06/06 03:50:28;;;;;;;24.73;16.00;;;12.40;99.90;;;;;;5036397;28;20387;-73
2022/06/06 03:53:02;;;;;;;19.08;13.20;;;12.40;99.90;;;;;;5036686;28;20056;-73
2022/06/06 03:56:02;;;;;;;19.27;12.88;;;12.40;99.90;;;;;;5037986;28;20045;-74
2022/06/06 03:58:32;;;;;;;18.15;11.85;;;12.50;99.90;;;;;;5037616;28;20052;-73
2022/06/06 04:01:04;;;;;;;23.75;14.43;;;12.50;99.90;;;;;;5036621;28;20045;-73
2022/06/06 04:03:33;;;;;;;19.50;13.38;;;12.50;99.90;;;;;;5037709;28;20045;-73
2022/06/06 04:06:03;;;;;;;19.73;12.90;;;12.50;99.90;;;;;;5036491;28;20248;-73
2022/06/06 04:08:32;;;;;;;25.35;16.52;;;12.50;99.90;;;;;;5037646;28;20372;-73
2022/06/06 04:11:12;;;;;;;21.10;14.30;;;12.60;99.90;;;;;;5020360;28;20052;-73
2022/06/06 04:14:07;;;;;;;22.33;14.40;;;12.50;99.90;;;;;;5036297;28;20360;-73
2022/06/06 04:16:46;;;;;;;24.17;14.27;;;12.60;99.90;;;;;;5037579;28;20163;-73
2022/06/06 04:19:35;;;;;;;27.35;18.88;;;12.60;99.90;;;;;;5036152;28;20045;-73
2022/06/06 04:22:35;;;;;;;24.83;19.05;;;12.60;99.90;;;;;;5037387;28;20056;-73
2022/06/06 04:25:30;;;;;;;25.58;14.95;;;12.60;99.90;;;;;;5037364;28;20057;-74
2022/06/06 04:28:31;;;;;;;28.80;18.38;;;12.60;99.90;;;;;;5019035;28;20380;-73
2022/06/06 04:31:05;;;;;;;23.88;15.73;;;12.60;99.90;;;;;;5037232;28;20064;-73
2022/06/06 04:33:54;;;;;;;23.48;14.35;;;12.60;99.90;;;;;;5036102;28;20045;-73
2022/06/06 04:37:01;;;;;;;21.15;15.45;;;12.60;99.90;;;;;;5019654;28;20044;-73
2022/06/06 04:39:38;;;;;;;18.00;11.93;;;12.60;99.90;;;;;;5018633;28;20038;-73
2022/06/06 04:42:16;;;;;;;23.50;12.65;;;12.60;99.90;;;;;;5037256;28;20287;-73
2022/06/06 04:45:02;;;;;;;18.17;12.52;;;12.70;99.90;;;;;;5037224;28;20052;-73
2022/06/06 04:47:39;;;;;;;17.95;11.00;;;12.70;99.90;;;;;;5018763;28;20049;-73
2022/06/06 04:50:16;;;;;;;17.33;11.65;;;12.70;99.90;;;;;;5037091;28;20041;-73
2022/06/06 04:52:50;;;;;;;14.75;10.30;;;12.70;99.90;;;;;;5035763;28;20061;-73
2022/06/06 04:55:20;;;;;;;14.85;9.13;;;12.70;99.90;;;;;;5036806;28;20049;-73
2022/06/06 04:57:55;;;;;;;12.32;9.48;;;12.70;99.90;;;;;;5019892;28;20049;-73
2022/06/06 05:00:24;;;;;;;19.98;11.27;;;12.80;99.90;;;;;;5049674;28;20060;-73
2022/06/06 05:02:52;;;;;;;13.95;9.23;;;12.80;99.90;;;;;;5056614;28;20041;-73
2022/06/06 05:05:25;;;;;;;12.27;8.55;;;12.90;99.90;;;;;;5056327;28;20439;-73
2022/06/06 05:08:19;;;;;;;15.93;8.30;;;13.00;99.90;;;;;;5055299;28;20048;-73
2022/06/06 05:10:47;;;;;;;11.60;8.38;;;13.00;99.90;;;;;;5056590;28;20041;-73
2022/06/06 05:13:27;;;;;;;9.90;7.55;;;13.00;99.90;;;;;;5054558;28;20060;-73
2022/06/06 05:16:07;;;;;;;8.02;6.80;;;13.00;99.90;;;;;;5056168;28;20049;-73
2022/06/06 05:18:50;;;;;;;12.40;7.30;;;13.00;99.90;;;;;;5056177;28;20060;-73
2022/06/06 05:21:33;;;;;;;11.00;6.60;;;13.00;99.90;;;;;;5055065;28;20064;-72
2022/06/06 05:24:03;;;;;;;8.55;6.25;;;13.00;99.90;;;;;;5056200;28;20045;-73
2022/06/06 05:26:52;;;;;;;11.63;6.78;;;13.00;99.90;;;;;;5055459;28;20056;-73
2022/06/06 05:29:45;;;;;;;10.60;6.68;;;13.00;99.90;;;;;;5056275;28;20045;-73
2022/06/06 05:32:31;;;;;;;7.40;6.63;;;13.00;99.90;;;;;;5056068;28;20049;-73
2022/06/06 05:35:28;;;;;;;9.48;6.80;;;13.00;99.90;;;;;;5056101;28;20064;-73
2022/06/06 05:38:17;;;;;;;10.02;6.22;;;13.00;99.90;;;;;;5056044;28;20048;-73
2022/06/06 05:40:45;;;;;;;7.53;5.57;;;13.00;99.90;;;;;;5054590;28;20045;-73
2022/06/06 05:43:15;;;;;;;7.97;5.30;;;12.90;99.90;;;;;;5056458;28;20049;-73
2022/06/06 05:45:46;;;;;;;7.38;5.85;;;12.90;99.90;;;;;;5055013;28;20056;-73
2022/06/06 05:48:38;;;;;;;9.00;5.82;;;13.00;99.90;;;;;;5054903;28;20051;-74
2022/06/06 05:51:43;;;;;;;8.23;6.07;;;13.00;99.90;;;;;;5054665;28;20048;-74
2022/06/06 05:54:35;;;;;;;9.15;6.75;;;13.00;99.90;;;;;;5054630;28;20053;-74
2022/06/06 05:57:20;;;;;;;9.38;5.93;;;13.00;99.90;;;;;;5054712;28;20072;-74
2022/06/06 06:00:34;;;;;;;8.35;6.00;;;13.00;99.90;;;;;;5053550;28;20060;-74
2022/06/06 06:03:43;;;;;;;10.25;5.95;;;13.10;99.90;;;;;;5054739;28;20049;-74
2022/06/06 06:06:33;;;;;;;9.65;6.43;;;13.10;99.90;;;;;;5054699;28;20041;-73
2022/06/06 06:09:18;;;;;;;9.25;6.25;;;13.20;99.90;;;;;;5055453;28;20037;-73
2022/06/06 06:12:04;;;;;;;8.48;6.20;;;13.20;99.90;;;;;;5054793;28;20045;-74
2022/06/06 06:14:35;;;;;;;8.95;6.30;;;13.20;99.90;;;;;;5054067;28;20041;-74
2022/06/06 06:17:03;;;;;;;7.43;5.32;;;13.20;99.90;;;;;;5055234;28;20057;-74
2022/06/06 06:19:36;;;;;;;;;;;13.20;99.90;;;;;;5054383;28;20048;-74
2022/06/06 06:22:05;;;;;;;9.23;6.05;;;13.20;99.90;;;;;;5037801;28;19920;-74
2022/06/06 06:24:37;;;;;;;6.35;5.28;;;13.10;99.90;;;;;;5054811;28;20052;-74
2022/06/06 06:27:06;;;;;;;7.00;5.70;;;13.10;99.90;;;;;;5054052;28;20056;-75
2022/06/06 06:29:34;;;;;;;7.47;5.55;;;13.10;99.90;;;;;;5054837;28;20081;-73
2022/06/06 06:32:32;;;;;;;7.20;5.25;;;13.10;99.90;;;;;;5054401;28;20049;-73
2022/06/06 06:34:59;;;;;;;;;;;13.00;99.90;;;;;;5054304;28;20056;-73
2022/06/06 06:37:48;;;;;;;7.22;5.40;;;13.00;99.90;;;;;;5053783;28;19921;-73
2022/06/06 06:40:28;;;;;;;8.65;5.80;;;13.00;99.90;;;;;;5053851;28;20052;-74
2022/06/06 06:43:15;;;;;;;10.77;6.57;;;13.00;99.90;;;;;;5054797;28;20041;-73
2022/06/06 06:45:54;;;;;;;7.53;5.90;;;13.00;99.90;;;;;;5054036;28;20056;-74
2022/06/06 06:48:32;;;;;;;7.90;5.95;;;13.00;99.90;;;;;;5054730;28;20455;-74
2022/06/06 06:51:14;;;;;;;9.32;6.38;;;13.00;99.90;;;;;;5054278;28;20048;-74
2022/06/06 06:53:51;;;;;;;6.45;5.70;;;13.00;99.90;;;;;;5053644;28;20045;-73
2022/06/06 06:56:25;;;;;;;9.45;6.15;;;13.00;99.90;;;;;;5054857;28;20066;-74
2022/06/06 06:59:00;;;;;;;9.32;5.78;;;13.00;99.90;;;;;;5052443;28;20056;-73
2022/06/06 07:08:32;;;;;;;7.10;5.10;;;13.10;99.90;;;;;;5017987;28;20491;-74
2022/06/06 07:10:46;;;;;;;3.78;2.90;;;13.20;99.90;;;;;;5033591;28;20066;-74
2022/06/06 07:13:40;;;;;;;2.97;2.05;;;13.20;99.90;;;;;;5033784;28;20045;-74
2022/06/06 07:16:22;;;;;;;3.22;1.25;;;13.10;99.90;;;;;;5034554;28;20464;-73
2022/06/06 07:19:02;;;;;;;2.05;1.08;;;13.00;99.90;;;;;;5034356;28;20057;-73
2022/06/06 07:21:33;;;;;;;3.13;0.77;;;13.00;99.90;;;;;;5017105;28;20472;-73
2022/06/06 07:24:07;;;;;;;1.80;0.80;;;12.90;99.90;;;;;;5036821;28;20045;-73
2022/06/06 07:26:38;;;;;;;1.67;0.68;;;12.90;99.90;;;;;;5020326;28;20044;-74
2022/06/06 07:29:07;;;;;;;1.58;0.80;;;12.90;99.90;;;;;;5020169;28;20045;-74
2022/06/06 07:31:56;;;;;;;1.08;0.85;;;12.90;99.90;;;;;;5021361;28;20487;-72
2022/06/06 07:34:41;;;;;;;3.67;1.08;;;13.00;99.90;;;;;;5003322;28;20383;-73
2022/06/06 07:37:47;;;;;;;2.72;1.42;;;13.00;99.90;;;;;;5037957;28;20047;-74
2022/06/06 07:40:42;;;;;;;3.45;1.70;;;13.00;99.90;;;;;;5036731;28;20060;-75
2022/06/06 07:43:28;;;;;;;3.20;1.70;;;12.90;99.90;;;;;;5020261;28;20056;-73
2022/06/06 07:46:07;;;;;;;3.00;2.17;;;12.90;99.90;;;;;;5036735;28;20282;-73
2022/06/06 07:49:00;;;;;;;4.00;2.10;;;12.90;99.90;;;;;;5037744;28;20037;-73
2022/06/06 07:51:36;;;;;;;4.28;2.80;;;12.90;99.90;;;;;;5037707;28;20048;-73
2022/06/06 07:54:12;;;;;;;5.45;3.50;;;12.90;99.90;;;;;;5036419;28;20060;-73
2022/06/06 07:57:24;;;;;;;4.40;3.40;;;13.00;99.90;;;;;;5037578;28;20064;-73
2022/06/06 08:00:10;;;;;;;3.65;2.00;;;13.10;99.90;;;;;;5017053;28;20057;-73
2022/06/06 08:03:07;;;;;;;6.25;2.22;;;13.20;99.90;;;;;;5020312;28;20112;-72
2022/06/06 08:05:52;;;;;;;3.90;1.75;;;13.20;99.90;;;;;;5020619;28;20037;-73
2022/06/06 08:08:38;;;;;;;4.22;2.58;;;13.10;99.90;;;;;;5037918;28;20056;-73
2022/06/06 08:11:20;;;;;;;3.15;2.30;;;13.20;99.90;;;;;;5038077;28;20064;-73
2022/06/06 08:14:14;;;;;;;5.90;3.00;;;13.20;99.90;;;;;;5036703;28;20052;-73
2022/06/06 08:17:04;;;;;;;4.13;2.60;;;13.30;99.90;;;;;;5037558;28;20052;-73
2022/06/06 08:19:52;;;;;;;4.07;2.10;;;13.30;99.90;;;;;;5037075;28;20045;-73
2022/06/06 08:22:24;;;;;;;2.72;1.50;;;13.40;99.90;;;;;;5037244;28;20053;-73
2022/06/06 08:24:54;;;;;;;4.10;1.73;;;13.50;99.90;;;;;;5037528;28;20057;-73
2022/06/06 08:27:29;;;;;;;2.35;1.20;;;13.60;99.90;;;;;;5036146;28;20042;-74
2022/06/06 08:29:58;;;;;;;2.28;1.10;;;13.60;99.90;;;;;;5037937;28;20045;-73
2022/06/06 08:32:27;;;;;;;2.47;1.33;;;13.60;99.90;;;;;;5019350;28;20049;-72
2022/06/06 08:34:55;;;;;;;4.32;1.10;;;13.60;99.90;;;;;;5015167;28;20050;-74
2022/06/06 08:37:48;;;;;;;4.03;1.33;;;13.60;99.90;;;;;;5032794;28;20368;-75
2022/06/06 08:40:37;;;;;;;1.70;1.10;;;13.50;99.90;;;;;;5035079;28;20104;-73
2022/06/06 08:43:07;;;;;;;3.95;1.30;;;13.50;99.90;;;;;;5035710;28;20049;-73
2022/06/06 08:46:05;;;;;;;1.83;1.00;;;13.50;99.90;;;;;;5036911;28;20056;-73
2022/06/06 08:48:42;;;;;;;3.85;1.30;;;13.50;99.90;;;;;;5036255;28;20049;-73
2022/06/06 08:51:40;;;;;;;1.13;0.80;;;13.50;99.90;;;;;;5037345;28;20054;-73
2022/06/06 08:54:45;;;;;;;2.42;0.90;;;13.50;99.90;;;;;;5035508;28;20045;-72
2022/06/06 08:57:22;;;;;;;1.92;1.00;;;13.60;99.90;;;;;;5036658;28;20046;-73
2022/06/06 09:00:08;;;;;;;1.27;0.90;;;13.80;99.90;;;;;;5035485;28;20045;-73
2022/06/06 09:02:54;;;;;;;2.28;0.75;;;14.10;99.90;;;;;;5019172;28;20391;-73
2022/06/06 09:05:52;;;;;;;1.50;0.80;;;14.30;99.90;;;;;;5037038;28;20360;-72
2022/06/06 09:08:51;;;;;;;1.70;1.00;;;14.50;99.90;;;;;;5019628;28;20057;-72
2022/06/06 09:11:47;;;;;;;1.58;0.90;;;14.70;99.90;;;;;;5036474;28;20050;-73
2022/06/06 09:14:39;;;;;;;3.65;1.00;;;14.80;99.90;;;;;;5017991;28;20049;-73
2022/06/06 09:17:25;;;;;;;1.60;1.10;;;15.00;99.90;;;;;;5036483;28;20053;-72
2022/06/06 09:20:14;;;;;;;4.57;1.10;;;15.00;99.90;;;;;;5035226;28;20056;-72
2022/06/06 09:22:45;;;;;;;2.58;1.00;;;15.10;99.90;;;;;;5036565;28;20057;-72
2022/06/06 09:25:34;;;;;;;2.03;1.00;;;15.00;99.90;;;;;;5019087;28;20349;-72
2022/06/06 09:28:01;;;;;;;2.17;0.90;;;14.90;99.90;;;;;;5035803;28;20522;-73
2022/06/06 09:31:00;;;;;;;1.70;1.05;;;14.80;99.90;;;;;;5036004;28;20056;-72
2022/06/06 09:33:30;;;;;;;2.70;1.60;;;14.80;99.90;;;;;;5017614;28;20034;-73
2022/06/06 09:36:16;;;;;;;2.95;1.20;;;14.80;99.90;;;;;;5035928;28;20491;-72
2022/06/06 09:38:56;;;;;;;1.65;1.20;;;14.80;99.90;;;;;;5036355;28;20049;-72
2022/06/06 09:42:00;;;;;;;1.65;1.23;;;14.80;99.90;;;;;;5036216;28;20064;-73
2022/06/06 09:44:47;;;;;;;2.30;1.27;;;14.90;99.90;;;;;;5018460;28;20045;-72
2022/06/06 09:47:32;;;;;;;2.30;1.35;;;15.00;99.90;;;;;;5016393;28;20050;-72
2022/06/06 09:50:22;;;;;;;4.60;1.60;;;15.00;99.90;;;;;;5018732;28;20064;-72
2022/06/06 09:53:12;;;;;;;3.30;1.52;;;15.00;99.90;;;;;;5034530;28;20069;-72
2022/06/06 09:59:08;;;;;;;3.85;2.53;;;14.90;99.90;;;;;;5035684;28;20053;-73
2022/06/06 10:02:12;;;;;;;2.63;2.00;;;14.80;99.90;;;;;;5035410;28;20037;-72
2022/06/06 10:04:59;;;;;;;2.05;1.40;;;14.80;99.90;;;;;;5035430;28;20046;-72
2022/06/06 10:07:32;;;;;;;2.55;1.50;;;14.70;99.90;;;;;;5017178;28;20059;-72
2022/06/06 10:10:38;;;;;;;2.70;1.63;;;14.70;99.90;;;;;;5035751;28;20045;-73
2022/06/06 10:13:36;;;;;;;3.47;1.60;;;14.80;99.90;;;;;;5034409;28;20048;-72
2022/06/06 10:16:42;;;;;;;2.00;1.40;;;14.80;99.90;;;;;;5036004;28;20463;-72
2022/06/06 10:19:49;;;;;;;2.80;1.70;;;14.70;99.90;;;;;;5034231;28;20060;-73
2022/06/06 10:22:25;;;;;;;2.70;1.75;;;14.70;99.90;;;;;;5034923;28;20053;-72
2022/06/06 10:25:11;;;;;;;2.13;1.13;;;14.80;99.90;;;;;;5035551;28;20041;-72
2022/06/06 10:27:58;;;;;;;1.50;1.00;;;14.60;99.90;;;;;;5034175;28;20050;-72
2022/06/06 10:30:37;;;;;;;1.77;1.00;;;14.60;99.90;;;;;;5035070;28;20045;-72
2022/06/06 10:33:23;;;;;;;2.65;1.20;;;14.50;99.90;;;;;;5033766;28;20064;-72
2022/06/06 10:36:20;;;;;;;2.72;1.27;;;14.60;99.90;;;;;;5035024;28;20484;-72
2022/06/06 10:38:56;;;;;;;3.45;1.25;;;14.70;99.90;;;;;;5034787;28;20056;-72
2022/06/06 10:41:57;;;;;;;2.72;1.40;;;14.80;99.90;;;;;;5035160;28;20053;-72
2022/06/06 10:45:25;;;;;;;2.45;1.23;;;14.80;99.90;;;;;;5034862;28;20049;-73
2022/06/06 10:48:17;;;;;;;5.82;1.30;;;14.70;99.90;;;;;;4994914;28;20069;-73
2022/06/06 10:51:42;;;;;;;1.48;1.20;;;14.70;99.90;;;;;;5034709;28;20049;-73
2022/06/06 10:54:28;;;;;;;3.47;1.08;;;14.60;99.90;;;;;;5016376;28;20053;-73
2022/06/06 10:57:01;;;;;;;3.05;1.55;;;14.60;99.90;;;;;;5034731;28;20052;-72
2022/06/06 10:59:40;;;;;;;3.22;1.40;;;14.50;99.90;;;;;;5032996;28;20053;-72
2022/06/06 11:02:26;;;;;;;2.60;1.60;;;14.50;99.90;;;;;;5034468;28;20042;-73
2022/06/06 11:05:38;;;;;;;4.95;1.63;;;14.50;99.90;;;;;;5017650;28;20495;-73
2022/06/06 11:08:39;;;;;;;5.38;2.50;;;14.50;99.90;;;;;;5034573;28;20456;-73
2022/06/06 11:11:30;;;;;;;3.38;1.75;;;14.50;99.90;;;;;;5009119;28;20052;-72
2022/06/06 11:14:17;;;;;;;5.60;1.88;;;14.50;99.90;;;;;;5016078;28;20045;-72
2022/06/06 11:17:12;;;;;;;6.07;1.85;;;14.60;99.90;;;;;;5034582;28;20053;-72
2022/06/06 11:20:14;;;;;;;3.15;1.83;;;14.70;99.90;;;;;;5016325;28;20041;-72
2022/06/06 11:23:00;;;;;;;3.85;1.67;;;14.70;99.90;;;;;;5034337;28;20479;-72
2022/06/06 11:25:38;;;;;;;4.05;1.60;;;14.60;99.90;;;;;;5033716;28;20371;-73
2022/06/06 11:28:09;;;;;;;;;;;14.60;99.90;;;;;;5034516;28;20038;-74
2022/06/06 11:31:14;;;;;;;3.42;1.75;;;14.60;99.90;;;;;;5034020;28;19921;-73
2022/06/06 11:34:06;;;;;;;4.07;1.83;;;14.70;99.90;;;;;;5033015;28;20046;-73
2022/06/06 11:36:45;;;;;;;3.63;1.58;;;14.70;99.90;;;;;;5034026;28;20045;-72
2022/06/06 11:39:34;;;;;;;4.90;2.03;;;14.80;99.90;;;;;;5015385;28;20038;-72
2022/06/06 11:42:20;;;;;;;2.75;1.80;;;14.90;99.90;;;;;;5033888;28;20041;-73
2022/06/06 11:45:03;;;;;;;7.80;2.13;;;15.00;99.90;;;;;;5034064;28;20045;-72
2022/06/06 11:47:49;;;;;;;4.97;1.80;;;15.00;99.90;;;;;;5032853;28;20064;-72
2022/06/06 11:50:55;;;;;;;4.43;2.67;;;15.00;99.90;;;;;;5034079;28;20049;-72
2022/06/06 11:54:00;;;;;;;6.07;2.10;;;15.00;99.90;;;;;;5032510;28;20058;-72
2022/06/06 11:56:35;;;;;;;3.50;1.80;;;15.00;99.90;;;;;;5033950;28;20046;-72
2022/06/06 11:59:18;;;;;;;4.25;1.60;;;15.10;99.90;;;;;;5032663;28;20057;-72
2022/06/06 12:02:23;;;;;;;3.22;1.65;;;15.20;99.90;;;;;;5016631;28;20053;-72
2022/06/06 12:05:15;;;;;;;3.63;1.80;;;15.30;99.90;;;;;;5033714;28;20045;-72
2022/06/06 12:08:19;;;;;;;5.85;2.10;;;15.40;99.90;;;;;;5032365;28;20053;-72
2022/06/06 12:10:46;;;;;;;3.97;1.88;;;15.50;99.90;;;;;;5018384;28;20468;-72
2022/06/06 12:13:41;;;;;;;4.13;2.00;;;15.50;99.90;;;;;;5018798;28;20049;-72
2022/06/06 12:16:24;;;;;;;4.38;2.13;;;15.50;99.90;;;;;;5037247;28;20392;-72
2022/06/06 12:19:20;;;;;;;5.57;2.00;;;15.50;99.90;;;;;;5019852;28;20058;-72
2022/06/06 12:21:50;;;;;;;4.40;2.40;;;15.60;99.90;;;;;;5037096;28;20049;-72
2022/06/06 12:24:18;;;;;;;4.03;2.30;;;15.50;99.90;;;;;;5019866;28;20052;-72
2022/06/06 12:26:50;;;;;;;6.28;2.47;;;15.50;99.90;;;;;;5035890;28;20049;-72
2022/06/06 12:29:39;;;;;;;4.45;2.40;;;15.40;99.90;;;;;;5037226;28;20053;-73
2022/06/06 12:32:28;;;;;;;8.32;2.83;;;15.40;99.90;;;;;;5012848;28;20049;-76
2022/06/06 12:34:56;;;;;;;4.47;2.80;;;15.40;99.90;;;;;;5017692;28;20065;-75
2022/06/06 12:37:31;;;;;;;6.55;3.22;;;15.40;99.90;;;;;;5017230;28;20469;-75
2022/06/06 12:40:08;;;;;;;6.88;3.33;;;15.50;99.90;;;;;;5015286;28;20046;-75
2022/06/06 12:43:06;;;;;;;5.35;3.35;;;15.50;99.90;;;;;;5001193;28;20050;-73
2022/06/06 12:46:06;;;;;;;5.97;3.20;;;15.50;99.90;;;;;;5029482;28;20045;-73
2022/06/06 12:48:39;;;;;;;6.57;3.28;;;15.50;99.90;;;;;;5024174;28;20352;-73
2022/06/06 12:51:19;;;;;;;9.23;3.80;;;15.50;99.90;;;;;;5017843;28;20050;-74
2022/06/06 12:53:54;;;;;;;5.95;3.63;;;15.50;99.90;;;;;;5019160;28;20037;-72
2022/06/06 12:56:37;;;;;;;5.30;3.40;;;15.50;99.90;;;;;;5032289;28;20053;-74
2022/06/06 12:59:13;;;;;;;8.05;3.35;;;15.50;99.90;;;;;;5017772;28;20057;-72
2022/06/06 13:01:59;;;;;;;4.90;3.08;;;15.60;99.90;;;;;;5036941;28;20053;-74
2022/06/06 13:05:04;;;;;;;4.72;3.20;;;15.70;99.90;;;;;;5036497;28;20041;-75
2022/06/06 13:07:56;;;;;;;4.85;3.00;;;15.80;99.90;;;;;;5013257;28;20046;-73
2022/06/06 13:10:49;;;;;;;5.72;3.20;;;16.10;99.90;;;;;;5019289;28;20372;-75
2022/06/06 13:13:34;;;;;;;3.70;2.33;;;16.30;99.90;;;;;;5035692;28;20056;-77
2022/06/06 13:16:31;;;;;;;4.88;2.22;;;15.70;99.90;;;;;;5018840;28;20053;-75
2022/06/06 13:19:00;;;;;;;4.75;2.30;;;17.10;99.90;;;;;;4983268;28;20050;-73
2022/06/06 13:22:02;;;;;;;3.65;2.17;;;17.40;99.90;;;;;;4998996;28;20488;-73
2022/06/06 13:24:52;;;;;;;4.05;2.30;;;17.70;99.90;;;;;;5016747;28;20050;-73
2022/06/06 13:27:31;;;;;;;3.72;2.47;;;18.10;99.90;;;;;;5007152;28;20510;-73
2022/06/06 13:30:18;;;;;;;4.18;2.70;;;18.20;99.90;;;;;;5036663;28;20056;-73
2022/06/06 13:33:33;;;;;;;5.25;2.92;;;18.40;99.90;;;;;;5035032;28;20041;-75
2022/06/06 13:36:20;;;;;;;4.60;2.97;;;18.50;99.90;;;;;;5036441;28;20448;-74
2022/06/06 13:39:18;;;;;;;4.65;3.13;;;18.60;99.90;;;;;;5035746;28;20064;-76
2022/06/06 13:41:58;;;;;;;4.40;3.05;;;18.60;99.90;;;;;;5025013;28;20046;-75
2022/06/06 13:44:40;;;;;;;4.80;3.00;;;18.50;99.90;;;;;;5000172;28;20052;-72
2022/06/06 13:47:27;;;;;;;8.07;2.70;;;18.50;99.90;;;;;;5015130;28;20482;-74
2022/06/06 13:50:21;;;;;;;3.92;2.78;;;18.50;99.90;;;;;;4999005;28;20038;-74
2022/06/06 13:53:07;;;;;;;4.80;3.22;;;18.40;99.90;;;;;;5013085;28;20497;-77
2022/06/06 13:55:40;;;;;;;6.25;4.10;;;18.20;99.90;;;;;;5023627;28;20046;-72
2022/06/06 13:58:11;;;;;;;;;;;17.90;99.90;;;;;;4999200;28;20049;-72
2022/06/06 14:01:00;;;;;;;5.95;3.80;;;17.70;99.90;;;;;;5025047;28;20343;-72
2022/06/06 14:03:45;;;;;;;7.75;3.90;;;17.60;99.90;;;;;;5035692;28;20041;-72
2022/06/06 14:06:23;;;;;;;5.85;4.22;;;17.50;99.90;;;;;;5034590;28;20379;-72
2022/06/06 14:08:56;;;;;;;7.20;4.38;;;17.40;99.90;;;;;;5035272;28;20053;-72
2022/06/06 14:11:48;;;;;;;6.38;4.13;;;17.30;99.90;;;;;;5035116;28;20368;-72
2022/06/06 14:14:19;;;;;;;5.03;3.70;;;17.20;99.90;;;;;;5034312;28;20056;-72
2022/06/06 14:17:09;;;;;;;6.85;4.60;;;17.20;99.90;;;;;;5035517;28;20045;-72
2022/06/06 14:19:46;;;;;;;7.13;4.30;;;17.10;99.90;;;;;;5034236;28;20060;-72